Celebrity Galaxy — 9HJH9 — position and weather

sailwx.info

Track history (hours):
 
Tides and Currents Weather Stations Pressure Air Temp Water Temp Dewpoint Dewpoint Depression Visibility Wind Speed Wind Dir Waves Ship Positions

Celebrity Galaxy

Last reported at 2020-Sep-24 07:30 UTC. Time now 2020-Sep-29 07:54 UTC.
Position N 50°29' W 001°59'.

Length 262 m; draft 8.2 m.

Type: Passenger vessel. MMSI: 249051000.

Date/timePositionNaut miles runAvg speedWind from/ knotsBaromVisibWave heightAir tempDewpointWater temp
2020-Sep-24 07:30N 50°29' W 001°59'4 3.7
2020-Sep-24 06:30N 50°30' W 001°54'4 3.6
2020-Sep-24 05:30N 50°31' W 001°48'5 1.9
2020-Sep-24 03:01N 50°31' W 001°55'2 3.5
2020-Sep-24 02:28N 50°31' W 001°58'2 3.7
2020-Sep-24 02:00N 50°30' W 002°01'12 2.5
2020-Sep-23 21:20N 50°34' W 002°19'4 0.1
2020-Sep-22 11:53N 50°37' W 002°22'0 0.0
2020-Sep-22 10:50N 50°37' W 002°22'0 0.0
2020-Sep-22 09:59N 50°37' W 002°22'0 0.0
2020-Sep-22 07:53N 50°37' W 002°22'0 0.0
2020-Sep-22 07:23N 50°37' W 002°22'0 0.0
2020-Sep-22 06:35N 50°37' W 002°22'0 0.0
2020-Sep-22 04:56N 50°37' W 002°22'0 0.0
2020-Sep-22 03:58N 50°37' W 002°22'0 0.0
2020-Sep-22 03:28N 50°37' W 002°22'0 0.0
2020-Sep-21 22:59N 50°37' W 002°22'0 0.0
2020-Sep-21 21:59N 50°37' W 002°22'0 0.0
2020-Sep-21 21:29N 50°37' W 002°22'0 0.0
2020-Sep-21 20:28N 50°37' W 002°22'0 0.0
2020-Sep-21 17:28N 50°37' W 002°22'0 0.0
2020-Sep-21 16:00N 50°37' W 002°22'0 0.0
2020-Sep-21 14:00N 50°37' W 002°22'0 0.0
2020-Sep-21 10:29N 50°37' W 002°22'0 0.0
2020-Sep-21 08:28N 50°37' W 002°22'0 0.0
2020-Sep-21 07:30N 50°37' W 002°22'0 0.0
2020-Sep-21 05:28N 50°37' W 002°22'0 0.0
2020-Sep-21 01:18N 50°37' W 002°22'0 0.0
2020-Sep-21 00:06N 50°37' W 002°22'0 0.0
2020-Sep-20 23:30N 50°37' W 002°22'0 0.0
2020-Sep-20 19:21N 50°37' W 002°22'0 0.0
2020-Sep-20 18:47N 50°37' W 002°22'5 0.5
2020-Sep-20 08:28N 50°32' W 002°24'9 6.2
2020-Sep-20 06:58N 50°31' W 002°39'0 0.1
2020-Sep-20 06:00N 50°31' W 002°39'0 0.0
2020-Sep-20 00:00N 50°31' W 002°39'0 0.0
2020-Sep-19 20:30N 50°31' W 002°38'0 0.0
2020-Sep-19 19:00N 50°31' W 002°39'0 0.1
2020-Sep-19 17:30N 50°31' W 002°39'0 0.0
2020-Sep-19 16:30N 50°31' W 002°39'0 0.0
2020-Sep-19 11:00N 50°31' W 002°39'0 0.1
2020-Sep-19 10:00N 50°31' W 002°39'0 0.0
2020-Sep-19 07:30N 50°31' W 002°39'0 0.1
2020-Sep-19 07:00N 50°31' W 002°39'0 0.0
2020-Sep-19 05:00N 50°31' W 002°39'0 0.1
2020-Sep-19 04:30N 50°31' W 002°39'0 0.0
2020-Sep-19 02:30N 50°31' W 002°39'0 0.0
2020-Sep-18 23:30N 50°31' W 002°39'0 0.0
2020-Sep-18 22:09N 50°31' W 002°39'0 0.1
2020-Sep-18 20:00N 50°31' W 002°39'0 0.1
2020-Sep-18 18:54N 50°31' W 002°39'0 0.1
2020-Sep-18 17:57N 50°31' W 002°39'0 0.0
2020-Sep-18 15:00N 50°31' W 002°39'0 0.0
2020-Sep-18 13:30N 50°31' W 002°39'0 0.0
2020-Sep-18 10:27N 50°31' W 002°39'0 0.0
2020-Sep-18 07:06N 50°31' W 002°39'0 0.0
2020-Sep-18 06:36N 50°31' W 002°39'0 0.1
2020-Sep-18 04:57N 50°31' W 002°39'0 0.1
2020-Sep-18 02:57N 50°31' W 002°39'0 0.0
2020-Sep-17 19:30N 50°31' W 002°39'0 0.1
2020-Sep-17 16:54N 50°31' W 002°39'0 0.0
2020-Sep-17 15:30N 50°31' W 002°39'0 0.4
2020-Sep-17 14:30N 50°31' W 002°38'13 5.1
2020-Sep-17 12:00N 50°31' W 002°18'5 1.3
2020-Sep-17 07:59N 50°36' W 002°22'0 0.0
2020-Sep-17 07:11N 50°36' W 002°22'0 0.0
2020-Sep-17 06:44N 50°36' W 002°22'0 0.0
2020-Sep-17 06:29N 50°36' W 002°22'0 0.0
2020-Sep-16 20:17N 50°36' W 002°22'0 0.0
2020-Sep-16 18:30N 50°36' W 002°22'0 0.0
2020-Sep-16 17:39N 50°36' W 002°22'0 0.0
2020-Sep-16 16:48N 50°36' W 002°22'0 0.0
2020-Sep-16 16:30N 50°36' W 002°22'0 0.0
2020-Sep-15 11:41N 50°36' W 002°21'0 0.0
2020-Sep-15 09:29N 50°36' W 002°22'0 0.0
2020-Sep-15 07:23N 50°36' W 002°22'0 0.0
2020-Sep-15 02:51N 50°36' W 002°22'0 0.0
2020-Sep-14 20:59N 50°36' W 002°22'0 0.0
2020-Sep-14 19:59N 50°36' W 002°22'0 0.0
2020-Sep-14 14:26N 50°36' W 002°22'0 0.0
2020-Sep-14 12:29N 50°36' W 002°21'0 0.0
2020-Sep-14 09:58N 50°36' W 002°21'  
Track history (hours):
 
Tides and Currents Weather Stations Pressure Air Temp Water Temp Dewpoint Dewpoint Depression Visibility Wind Speed Wind Dir Waves Ship Positions

Celebrity Galaxy

Last reported at 2020-Sep-24 07:30 UTC. Time now 2020-Sep-29 07:54 UTC.
Position N 50°29' W 001°59'.

Length 262 m; draft 8.2 m.

Type: Passenger vessel. MMSI: 249051000.

Date/timePositionNaut miles runAvg speedWind from/ knotsBaromVisibWave heightAir tempDewpointWater temp
2020-Sep-24 07:30N 50°29' W 001°59'4 3.7
2020-Sep-24 06:30N 50°30' W 001°54'4 3.6
2020-Sep-24 05:30N 50°31' W 001°48'5 1.9
2020-Sep-24 03:01N 50°31' W 001°55'2 3.5
2020-Sep-24 02:28N 50°31' W 001°58'2 3.7
2020-Sep-24 02:00N 50°30' W 002°01'12 2.5
2020-Sep-23 21:20N 50°34' W 002°19'4 0.1
2020-Sep-22 11:53N 50°37' W 002°22'0 0.0
2020-Sep-22 10:50N 50°37' W 002°22'0 0.0
2020-Sep-22 09:59N 50°37' W 002°22'0 0.0
2020-Sep-22 07:53N 50°37' W 002°22'0 0.0
2020-Sep-22 07:23N 50°37' W 002°22'0 0.0
2020-Sep-22 06:35N 50°37' W 002°22'0 0.0
2020-Sep-22 04:56N 50°37' W 002°22'0 0.0
2020-Sep-22 03:58N 50°37' W 002°22'0 0.0
2020-Sep-22 03:28N 50°37' W 002°22'0 0.0
2020-Sep-21 22:59N 50°37' W 002°22'0 0.0
2020-Sep-21 21:59N 50°37' W 002°22'0 0.0
2020-Sep-21 21:29N 50°37' W 002°22'0 0.0
2020-Sep-21 20:28N 50°37' W 002°22'0 0.0
2020-Sep-21 17:28N 50°37' W 002°22'0 0.0
2020-Sep-21 16:00N 50°37' W 002°22'0 0.0
2020-Sep-21 14:00N 50°37' W 002°22'0 0.0
2020-Sep-21 10:29N 50°37' W 002°22'0 0.0
2020-Sep-21 08:28N 50°37' W 002°22'0 0.0
2020-Sep-21 07:30N 50°37' W 002°22'0 0.0
2020-Sep-21 05:28N 50°37' W 002°22'0 0.0
2020-Sep-21 01:18N 50°37' W 002°22'0 0.0
2020-Sep-21 00:06N 50°37' W 002°22'0 0.0
2020-Sep-20 23:30N 50°37' W 002°22'0 0.0
2020-Sep-20 19:21N 50°37' W 002°22'0 0.0
2020-Sep-20 18:47N 50°37' W 002°22'5 0.5
2020-Sep-20 08:28N 50°32' W 002°24'9 6.2
2020-Sep-20 06:58N 50°31' W 002°39'0 0.1
2020-Sep-20 06:00N 50°31' W 002°39'0 0.0
2020-Sep-20 00:00N 50°31' W 002°39'0 0.0
2020-Sep-19 20:30N 50°31' W 002°38'0 0.0
2020-Sep-19 19:00N 50°31' W 002°39'0 0.1
2020-Sep-19 17:30N 50°31' W 002°39'0 0.0
2020-Sep-19 16:30N 50°31' W 002°39'0 0.0
2020-Sep-19 11:00N 50°31' W 002°39'0 0.1
2020-Sep-19 10:00N 50°31' W 002°39'0 0.0
2020-Sep-19 07:30N 50°31' W 002°39'0 0.1
2020-Sep-19 07:00N 50°31' W 002°39'0 0.0
2020-Sep-19 05:00N 50°31' W 002°39'0 0.1
2020-Sep-19 04:30N 50°31' W 002°39'0 0.0
2020-Sep-19 02:30N 50°31' W 002°39'0 0.0
2020-Sep-18 23:30N 50°31' W 002°39'0 0.0
2020-Sep-18 22:09N 50°31' W 002°39'0 0.1
2020-Sep-18 20:00N 50°31' W 002°39'0 0.1
2020-Sep-18 18:54N 50°31' W 002°39'0 0.1
2020-Sep-18 17:57N 50°31' W 002°39'0 0.0
2020-Sep-18 15:00N 50°31' W 002°39'0 0.0
2020-Sep-18 13:30N 50°31' W 002°39'0 0.0
2020-Sep-18 10:27N 50°31' W 002°39'0 0.0
2020-Sep-18 07:06N 50°31' W 002°39'0 0.0
2020-Sep-18 06:36N 50°31' W 002°39'0 0.1
2020-Sep-18 04:57N 50°31' W 002°39'0 0.1
2020-Sep-18 02:57N 50°31' W 002°39'0 0.0
2020-Sep-17 19:30N 50°31' W 002°39'0 0.1
2020-Sep-17 16:54N 50°31' W 002°39'0 0.0
2020-Sep-17 15:30N 50°31' W 002°39'0 0.4
2020-Sep-17 14:30N 50°31' W 002°38'13 5.1
2020-Sep-17 12:00N 50°31' W 002°18'5 1.3
2020-Sep-17 07:59N 50°36' W 002°22'0 0.0
2020-Sep-17 07:11N 50°36' W 002°22'0 0.0
2020-Sep-17 06:44N 50°36' W 002°22'0 0.0
2020-Sep-17 06:29N 50°36' W 002°22'0 0.0
2020-Sep-16 20:17N 50°36' W 002°22'0 0.0
2020-Sep-16 18:30N 50°36' W 002°22'0 0.0
2020-Sep-16 17:39N 50°36' W 002°22'0 0.0
2020-Sep-16 16:48N 50°36' W 002°22'0 0.0
2020-Sep-16 16:30N 50°36' W 002°22'0 0.0
2020-Sep-15 11:41N 50°36' W 002°21'0 0.0
2020-Sep-15 09:29N 50°36' W 002°22'0 0.0
2020-Sep-15 07:23N 50°36' W 002°22'0 0.0
2020-Sep-15 02:51N 50°36' W 002°22'0 0.0
2020-Sep-14 20:59N 50°36' W 002°22'0 0.0
2020-Sep-14 19:59N 50°36' W 002°22'0 0.0
2020-Sep-14 14:26N 50°36' W 002°22'0 0.0
2020-Sep-14 12:29N 50°36' W 002°21'0 0.0
2020-Sep-14 09:58N 50°36' W 002°21'  

Dump ship's entire track history